sensor_id;sensor_type;location;lat;lon;timestamp;P1;durP1;ratioP1;P2;durP2;ratioP2
42282;SDS011;28237;47.954;21.730;2022-09-02T00:00:15;3.10;;;0.60;;
42282;SDS011;28237;47.954;21.730;2022-09-02T00:02:41;0.60;;;0.35;;
42282;SDS011;28237;47.954;21.730;2022-09-02T00:05:06;1.38;;;0.50;;
42282;SDS011;28237;47.954;21.730;2022-09-02T00:07:32;3.00;;;0.50;;
42282;SDS011;28237;47.954;21.730;2022-09-02T00:09:57;1.47;;;0.40;;
42282;SDS011;28237;47.954;21.730;2022-09-02T00:12:24;3.22;;;0.43;;
42282;SDS011;28237;47.954;21.730;2022-09-02T00:14:49;3.83;;;0.50;;
42282;SDS011;28237;47.954;21.730;2022-09-02T00:17:14;2.67;;;0.77;;
42282;SDS011;28237;47.954;21.730;2022-09-02T00:19:40;1.07;;;0.20;;
42282;SDS011;28237;47.954;21.730;2022-09-02T00:22:05;1.33;;;0.60;;
42282;SDS011;28237;47.954;21.730;2022-09-02T00:24:30;1.60;;;0.50;;
42282;SDS011;28237;47.954;21.730;2022-09-02T00:26:56;2.47;;;0.52;;
42282;SDS011;28237;47.954;21.730;2022-09-02T00:29:21;1.53;;;0.33;;
42282;SDS011;28237;47.954;21.730;2022-09-02T00:31:46;0.80;;;0.20;;
42282;SDS011;28237;47.954;21.730;2022-09-02T00:34:12;2.65;;;0.43;;
42282;SDS011;28237;47.954;21.730;2022-09-02T00:36:37;2.10;;;0.40;;
42282;SDS011;28237;47.954;21.730;2022-09-02T00:39:03;0.93;;;0.37;;
42282;SDS011;28237;47.954;21.730;2022-09-02T00:41:29;3.45;;;0.52;;
42282;SDS011;28237;47.954;21.730;2022-09-02T00:44:02;1.27;;;0.30;;
42282;SDS011;28237;47.954;21.730;2022-09-02T00:46:30;0.70;;;0.25;;
42282;SDS011;28237;47.954;21.730;2022-09-02T00:51:50;1.38;;;0.68;;
42282;SDS011;28237;47.954;21.730;2022-09-02T00:54:17;3.03;;;0.50;;
42282;SDS011;28237;47.954;21.730;2022-09-02T00:56:44;1.60;;;0.38;;
42282;SDS011;28237;47.954;21.730;2022-09-02T00:59:14;3.50;;;0.47;;
42282;SDS011;28237;47.954;21.730;2022-09-02T01:01:41;2.25;;;0.40;;
42282;SDS011;28237;47.954;21.730;2022-09-02T01:04:06;2.30;;;0.50;;
42282;SDS011;28237;47.954;21.730;2022-09-02T01:06:31;0.90;;;0.22;;
42282;SDS011;28237;47.954;21.730;2022-09-02T01:09:01;1.13;;;0.32;;
42282;SDS011;28237;47.954;21.730;2022-09-02T01:11:28;2.10;;;0.77;;
42282;SDS011;28237;47.954;21.730;2022-09-02T01:13:56;1.95;;;0.70;;
42282;SDS011;28237;47.954;21.730;2022-09-02T01:16:22;1.33;;;0.50;;
42282;SDS011;28237;47.954;21.730;2022-09-02T01:18:50;1.80;;;0.60;;
42282;SDS011;28237;47.954;21.730;2022-09-02T01:21:16;1.17;;;0.55;;
42282;SDS011;28237;47.954;21.730;2022-09-02T01:23:42;1.42;;;0.50;;
42282;SDS011;28237;47.954;21.730;2022-09-02T01:26:08;4.15;;;0.75;;
42282;SDS011;28237;47.954;21.730;2022-09-02T01:28:33;2.10;;;0.33;;
42282;SDS011;28237;47.954;21.730;2022-09-02T01:30:58;0.70;;;0.40;;
42282;SDS011;28237;47.954;21.730;2022-09-02T01:33:24;0.77;;;0.43;;
42282;SDS011;28237;47.954;21.730;2022-09-02T01:35:49;2.78;;;0.40;;
42282;SDS011;28237;47.954;21.730;2022-09-02T01:38:15;2.60;;;0.47;;
42282;SDS011;28237;47.954;21.730;2022-09-02T01:40:40;2.20;;;0.45;;
42282;SDS011;28237;47.954;21.730;2022-09-02T01:43:10;1.03;;;0.30;;
42282;SDS011;28237;47.954;21.730;2022-09-02T01:45:36;1.15;;;0.55;;
42282;SDS011;28237;47.954;21.730;2022-09-02T01:48:03;2.03;;;0.57;;
42282;SDS011;28237;47.954;21.730;2022-09-02T01:50:28;2.30;;;0.45;;
42282;SDS011;28237;47.954;21.730;2022-09-02T01:52:54;3.03;;;0.35;;
42282;SDS011;28237;47.954;21.730;2022-09-02T01:55:20;8.85;;;0.90;;
42282;SDS011;28237;47.954;21.730;2022-09-02T01:57:46;3.42;;;0.50;;
42282;SDS011;28237;47.954;21.730;2022-09-02T02:00:12;4.33;;;1.13;;
42282;SDS011;28237;47.954;21.730;2022-09-02T02:02:38;3.05;;;1.20;;
42282;SDS011;28237;47.954;21.730;2022-09-02T02:05:03;2.47;;;0.40;;
42282;SDS011;28237;47.954;21.730;2022-09-02T02:07:28;1.23;;;0.38;;
42282;SDS011;28237;47.954;21.730;2022-09-02T02:09:54;0.93;;;0.57;;
42282;SDS011;28237;47.954;21.730;2022-09-02T02:12:19;2.15;;;0.45;;
42282;SDS011;28237;47.954;21.730;2022-09-02T02:14:45;0.93;;;0.50;;
42282;SDS011;28237;47.954;21.730;2022-09-02T02:17:10;1.35;;;0.57;;
42282;SDS011;28237;47.954;21.730;2022-09-02T02:19:35;1.20;;;0.50;;
42282;SDS011;28237;47.954;21.730;2022-09-02T02:22:01;1.08;;;0.50;;
42282;SDS011;28237;47.954;21.730;2022-09-02T02:24:26;1.52;;;0.47;;
42282;SDS011;28237;47.954;21.730;2022-09-02T02:26:52;0.70;;;0.47;;
42282;SDS011;28237;47.954;21.730;2022-09-02T02:29:17;1.65;;;0.70;;
42282;SDS011;28237;47.954;21.730;2022-09-02T02:31:43;2.45;;;0.52;;
42282;SDS011;28237;47.954;21.730;2022-09-02T02:34:09;6.25;;;0.60;;
42282;SDS011;28237;47.954;21.730;2022-09-02T02:36:35;1.67;;;0.55;;
42282;SDS011;28237;47.954;21.730;2022-09-02T02:39:00;2.88;;;0.43;;
42282;SDS011;28237;47.954;21.730;2022-09-02T02:41:26;1.23;;;0.50;;
42282;SDS011;28237;47.954;21.730;2022-09-02T02:43:51;3.60;;;0.45;;
42282;SDS011;28237;47.954;21.730;2022-09-02T02:46:17;3.65;;;0.70;;
42282;SDS011;28237;47.954;21.730;2022-09-02T02:48:43;3.65;;;0.60;;
42282;SDS011;28237;47.954;21.730;2022-09-02T02:51:08;1.10;;;0.45;;
42282;SDS011;28237;47.954;21.730;2022-09-02T02:53:34;1.13;;;0.40;;
42282;SDS011;28237;47.954;21.730;2022-09-02T02:56:00;3.50;;;0.80;;
42282;SDS011;28237;47.954;21.730;2022-09-02T02:58:25;1.55;;;0.60;;
42282;SDS011;28237;47.954;21.730;2022-09-02T03:00:51;1.45;;;0.52;;
42282;SDS011;28237;47.954;21.730;2022-09-02T03:03:16;2.80;;;0.60;;
42282;SDS011;28237;47.954;21.730;2022-09-02T03:05:46;1.83;;;0.82;;
42282;SDS011;28237;47.954;21.730;2022-09-02T03:08:12;1.65;;;0.40;;
42282;SDS011;28237;47.954;21.730;2022-09-02T03:10:37;3.07;;;0.80;;
42282;SDS011;28237;47.954;21.730;2022-09-02T03:13:05;2.97;;;0.60;;
42282;SDS011;28237;47.954;21.730;2022-09-02T03:15:30;3.15;;;0.68;;
42282;SDS011;28237;47.954;21.730;2022-09-02T03:17:56;1.52;;;0.40;;
42282;SDS011;28237;47.954;21.730;2022-09-02T03:20:22;0.70;;;0.50;;
42282;SDS011;28237;47.954;21.730;2022-09-02T03:22:48;4.10;;;1.10;;
42282;SDS011;28237;47.954;21.730;2022-09-02T03:25:15;3.30;;;0.70;;
42282;SDS011;28237;47.954;21.730;2022-09-02T03:27:41;1.75;;;0.85;;
42282;SDS011;28237;47.954;21.730;2022-09-02T03:30:11;2.55;;;0.60;;
42282;SDS011;28237;47.954;21.730;2022-09-02T03:32:37;4.40;;;0.75;;
42282;SDS011;28237;47.954;21.730;2022-09-02T03:35:03;1.23;;;0.50;;
42282;SDS011;28237;47.954;21.730;2022-09-02T03:37:28;2.88;;;1.15;;
42282;SDS011;28237;47.954;21.730;2022-09-02T03:39:53;2.75;;;0.75;;
42282;SDS011;28237;47.954;21.730;2022-09-02T03:42:19;2.58;;;0.60;;
42282;SDS011;28237;47.954;21.730;2022-09-02T03:44:44;2.28;;;0.60;;
42282;SDS011;28237;47.954;21.730;2022-09-02T03:47:09;1.20;;;0.50;;
42282;SDS011;28237;47.954;21.730;2022-09-02T03:49:35;1.10;;;0.60;;
42282;SDS011;28237;47.954;21.730;2022-09-02T03:52:00;2.60;;;0.80;;
42282;SDS011;28237;47.954;21.730;2022-09-02T03:54:25;2.15;;;0.82;;
42282;SDS011;28237;47.954;21.730;2022-09-02T03:56:51;1.97;;;0.60;;
42282;SDS011;28237;47.954;21.730;2022-09-02T03:59:16;3.33;;;0.60;;
42282;SDS011;28237;47.954;21.730;2022-09-02T04:01:41;3.95;;;1.63;;
42282;SDS011;28237;47.954;21.730;2022-09-02T04:04:07;1.40;;;0.60;;
42282;SDS011;28237;47.954;21.730;2022-09-02T04:06:32;2.45;;;1.35;;
42282;SDS011;28237;47.954;21.730;2022-09-02T04:08:58;2.70;;;0.80;;
42282;SDS011;28237;47.954;21.730;2022-09-02T04:11:23;1.40;;;0.68;;
42282;SDS011;28237;47.954;21.730;2022-09-02T04:13:49;1.93;;;0.63;;
42282;SDS011;28237;47.954;21.730;2022-09-02T04:16:17;2.80;;;0.98;;
42282;SDS011;28237;47.954;21.730;2022-09-02T04:18:42;1.70;;;0.90;;
42282;SDS011;28237;47.954;21.730;2022-09-02T04:21:08;2.50;;;1.37;;
42282;SDS011;28237;47.954;21.730;2022-09-02T04:23:33;6.13;;;1.03;;
42282;SDS011;28237;47.954;21.730;2022-09-02T04:26:02;5.47;;;0.98;;
42282;SDS011;28237;47.954;21.730;2022-09-02T04:28:27;1.42;;;0.80;;
42282;SDS011;28237;47.954;21.730;2022-09-02T04:30:52;3.17;;;0.97;;
42282;SDS011;28237;47.954;21.730;2022-09-02T04:33:18;1.33;;;0.73;;
42282;SDS011;28237;47.954;21.730;2022-09-02T04:35:44;2.73;;;0.70;;
42282;SDS011;28237;47.954;21.730;2022-09-02T04:38:10;2.40;;;1.38;;
42282;SDS011;28237;47.954;21.730;2022-09-02T04:40:38;2.53;;;0.75;;
42282;SDS011;28237;47.954;21.730;2022-09-02T04:43:04;4.03;;;1.05;;
42282;SDS011;28237;47.954;21.730;2022-09-02T04:45:29;5.27;;;0.80;;
42282;SDS011;28237;47.954;21.730;2022-09-02T04:47:54;3.90;;;1.03;;
42282;SDS011;28237;47.954;21.730;2022-09-02T04:50:20;4.60;;;0.70;;
42282;SDS011;28237;47.954;21.730;2022-09-02T04:52:45;3.10;;;1.03;;
42282;SDS011;28237;47.954;21.730;2022-09-02T04:55:10;4.23;;;1.33;;
42282;SDS011;28237;47.954;21.730;2022-09-02T04:57:36;2.28;;;1.00;;
42282;SDS011;28237;47.954;21.730;2022-09-02T05:00:03;2.20;;;0.93;;
42282;SDS011;28237;47.954;21.730;2022-09-02T05:02:29;1.40;;;0.55;;
42282;SDS011;28237;47.954;21.730;2022-09-02T05:04:54;2.80;;;0.80;;
42282;SDS011;28237;47.954;21.730;2022-09-02T05:07:19;3.10;;;0.93;;
42282;SDS011;28237;47.954;21.730;2022-09-02T05:09:45;3.95;;;1.52;;
42282;SDS011;28237;47.954;21.730;2022-09-02T05:12:10;3.23;;;1.00;;
42282;SDS011;28237;47.954;21.730;2022-09-02T05:14:35;4.55;;;1.35;;
42282;SDS011;28237;47.954;21.730;2022-09-02T05:17:01;2.75;;;1.08;;
42282;SDS011;28237;47.954;21.730;2022-09-02T05:19:28;2.85;;;0.80;;
42282;SDS011;28237;47.954;21.730;2022-09-02T05:21:54;6.40;;;1.45;;
42282;SDS011;28237;47.954;21.730;2022-09-02T05:24:23;3.42;;;1.20;;
42282;SDS011;28237;47.954;21.730;2022-09-02T05:26:48;3.58;;;0.88;;
42282;SDS011;28237;47.954;21.730;2022-09-02T05:29:15;2.05;;;1.10;;
42282;SDS011;28237;47.954;21.730;2022-09-02T05:31:41;4.18;;;1.55;;
42282;SDS011;28237;47.954;21.730;2022-09-02T05:34:07;2.65;;;1.10;;
42282;SDS011;28237;47.954;21.730;2022-09-02T05:36:32;2.28;;;1.10;;
42282;SDS011;28237;47.954;21.730;2022-09-02T05:38:58;2.47;;;1.10;;
42282;SDS011;28237;47.954;21.730;2022-09-02T05:41:25;5.85;;;0.80;;
42282;SDS011;28237;47.954;21.730;2022-09-02T05:43:53;1.98;;;1.10;;
42282;SDS011;28237;47.954;21.730;2022-09-02T05:46:19;2.95;;;0.90;;
42282;SDS011;28237;47.954;21.730;2022-09-02T05:48:45;3.08;;;1.02;;
42282;SDS011;28237;47.954;21.730;2022-09-02T05:51:30;2.97;;;1.58;;
42282;SDS011;28237;47.954;21.730;2022-09-02T05:53:56;2.58;;;1.55;;
42282;SDS011;28237;47.954;21.730;2022-09-02T05:56:22;2.28;;;1.15;;
42282;SDS011;28237;47.954;21.730;2022-09-02T05:58:47;7.05;;;1.30;;
42282;SDS011;28237;47.954;21.730;2022-09-02T06:01:13;4.05;;;1.13;;
42282;SDS011;28237;47.954;21.730;2022-09-02T06:03:39;2.53;;;1.20;;
42282;SDS011;28237;47.954;21.730;2022-09-02T06:06:04;2.38;;;0.73;;
42282;SDS011;28237;47.954;21.730;2022-09-02T06:08:30;4.25;;;1.38;;
42282;SDS011;28237;47.954;21.730;2022-09-02T06:10:55;4.00;;;1.27;;
42282;SDS011;28237;47.954;21.730;2022-09-02T06:13:20;3.87;;;1.10;;
42282;SDS011;28237;47.954;21.730;2022-09-02T06:15:46;3.28;;;1.15;;
42282;SDS011;28237;47.954;21.730;2022-09-02T06:18:12;5.05;;;1.23;;
42282;SDS011;28237;47.954;21.730;2022-09-02T06:20:40;2.57;;;1.27;;
42282;SDS011;28237;47.954;21.730;2022-09-02T06:23:06;3.08;;;1.13;;
42282;SDS011;28237;47.954;21.730;2022-09-02T06:25:34;13.00;;;1.92;;
42282;SDS011;28237;47.954;21.730;2022-09-02T06:28:00;5.03;;;1.10;;
42282;SDS011;28237;47.954;21.730;2022-09-02T06:30:25;1.42;;;1.00;;
42282;SDS011;28237;47.954;21.730;2022-09-02T06:32:50;1.70;;;1.10;;
42282;SDS011;28237;47.954;21.730;2022-09-02T06:35:15;7.80;;;1.60;;
42282;SDS011;28237;47.954;21.730;2022-09-02T06:37:41;5.50;;;1.10;;
42282;SDS011;28237;47.954;21.730;2022-09-02T06:40:06;4.13;;;1.20;;
42282;SDS011;28237;47.954;21.730;2022-09-02T06:42:32;6.00;;;0.98;;
42282;SDS011;28237;47.954;21.730;2022-09-02T06:44:57;6.32;;;1.42;;
42282;SDS011;28237;47.954;21.730;2022-09-02T06:47:22;6.23;;;1.50;;
42282;SDS011;28237;47.954;21.730;2022-09-02T06:49:48;8.68;;;1.55;;
42282;SDS011;28237;47.954;21.730;2022-09-02T06:52:13;4.88;;;1.45;;
42282;SDS011;28237;47.954;21.730;2022-09-02T06:54:38;4.37;;;1.30;;
42282;SDS011;28237;47.954;21.730;2022-09-02T06:57:04;3.60;;;1.00;;
42282;SDS011;28237;47.954;21.730;2022-09-02T06:59:29;2.30;;;0.77;;
42282;SDS011;28237;47.954;21.730;2022-09-02T07:01:54;3.03;;;1.03;;
42282;SDS011;28237;47.954;21.730;2022-09-02T07:04:20;3.00;;;1.30;;
42282;SDS011;28237;47.954;21.730;2022-09-02T07:07:05;4.20;;;1.58;;
42282;SDS011;28237;47.954;21.730;2022-09-02T07:09:30;2.22;;;1.02;;
42282;SDS011;28237;47.954;21.730;2022-09-02T07:11:57;1.80;;;1.07;;
42282;SDS011;28237;47.954;21.730;2022-09-02T07:14:22;2.13;;;1.20;;
42282;SDS011;28237;47.954;21.730;2022-09-02T07:16:49;2.45;;;0.90;;
42282;SDS011;28237;47.954;21.730;2022-09-02T07:19:15;4.47;;;1.20;;
42282;SDS011;28237;47.954;21.730;2022-09-02T07:21:42;3.80;;;1.05;;
42282;SDS011;28237;47.954;21.730;2022-09-02T07:24:08;6.35;;;1.38;;
42282;SDS011;28237;47.954;21.730;2022-09-02T07:26:34;4.32;;;1.08;;
42282;SDS011;28237;47.954;21.730;2022-09-02T07:28:59;5.57;;;1.20;;
42282;SDS011;28237;47.954;21.730;2022-09-02T07:31:24;5.37;;;1.33;;
42282;SDS011;28237;47.954;21.730;2022-09-02T07:33:51;4.28;;;1.52;;
42282;SDS011;28237;47.954;21.730;2022-09-02T07:36:17;4.10;;;1.30;;
42282;SDS011;28237;47.954;21.730;2022-09-02T07:38:45;3.40;;;1.60;;
42282;SDS011;28237;47.954;21.730;2022-09-02T07:41:10;6.05;;;1.40;;
42282;SDS011;28237;47.954;21.730;2022-09-02T07:43:37;3.78;;;1.33;;
42282;SDS011;28237;47.954;21.730;2022-09-02T07:46:03;2.90;;;0.82;;
42282;SDS011;28237;47.954;21.730;2022-09-02T07:48:29;4.88;;;1.35;;
42282;SDS011;28237;47.954;21.730;2022-09-02T07:50:55;3.50;;;1.50;;
42282;SDS011;28237;47.954;21.730;2022-09-02T07:53:21;3.13;;;1.45;;
42282;SDS011;28237;47.954;21.730;2022-09-02T07:55:47;4.38;;;1.10;;
42282;SDS011;28237;47.954;21.730;2022-09-02T07:58:12;2.40;;;1.10;;
42282;SDS011;28237;47.954;21.730;2022-09-02T08:00:38;4.30;;;0.70;;
42282;SDS011;28237;47.954;21.730;2022-09-02T08:03:04;3.38;;;1.08;;
42282;SDS011;28237;47.954;21.730;2022-09-02T08:05:30;4.07;;;0.85;;
42282;SDS011;28237;47.954;21.730;2022-09-02T08:07:55;4.10;;;1.17;;
42282;SDS011;28237;47.954;21.730;2022-09-02T08:10:21;4.40;;;1.10;;
42282;SDS011;28237;47.954;21.730;2022-09-02T08:12:48;5.28;;;0.88;;
42282;SDS011;28237;47.954;21.730;2022-09-02T08:15:16;1.58;;;0.98;;
42282;SDS011;28237;47.954;21.730;2022-09-02T08:17:41;2.78;;;1.17;;
42282;SDS011;28237;47.954;21.730;2022-09-02T08:20:08;3.00;;;1.00;;
42282;SDS011;28237;47.954;21.730;2022-09-02T08:22:34;5.50;;;2.45;;
42282;SDS011;28237;47.954;21.730;2022-09-02T08:25:00;1.83;;;1.00;;
42282;SDS011;28237;47.954;21.730;2022-09-02T08:27:25;1.83;;;0.90;;
42282;SDS011;28237;47.954;21.730;2022-09-02T08:29:51;1.92;;;1.30;;
42282;SDS011;28237;47.954;21.730;2022-09-02T08:32:16;3.33;;;1.33;;
42282;SDS011;28237;47.954;21.730;2022-09-02T08:34:42;1.50;;;0.88;;
42282;SDS011;28237;47.954;21.730;2022-09-02T08:37:07;3.03;;;0.83;;
42282;SDS011;28237;47.954;21.730;2022-09-02T08:39:33;3.43;;;1.10;;
42282;SDS011;28237;47.954;21.730;2022-09-02T08:42:19;1.63;;;0.73;;
42282;SDS011;28237;47.954;21.730;2022-09-02T08:44:46;2.53;;;1.23;;
42282;SDS011;28237;47.954;21.730;2022-09-02T08:47:13;5.57;;;1.40;;
42282;SDS011;28237;47.954;21.730;2022-09-02T08:49:43;4.18;;;1.50;;
42282;SDS011;28237;47.954;21.730;2022-09-02T08:52:11;3.47;;;1.13;;
42282;SDS011;28237;47.954;21.730;2022-09-02T08:54:52;3.28;;;1.17;;
42282;SDS011;28237;47.954;21.730;2022-09-02T08:57:22;2.55;;;1.00;;
42282;SDS011;28237;47.954;21.730;2022-09-02T08:59:49;3.95;;;1.30;;
42282;SDS011;28237;47.954;21.730;2022-09-02T09:13:29;4.30;;;1.50;;
42282;SDS011;28237;47.954;21.730;2022-09-02T09:17:58;6.80;;;1.90;;
42282;SDS011;28237;47.954;21.730;2022-09-02T09:20:24;3.97;;;2.30;;
42282;SDS011;28237;47.954;21.730;2022-09-02T09:22:50;3.50;;;1.98;;
42282;SDS011;28237;47.954;21.730;2022-09-02T09:25:20;4.05;;;2.08;;
42282;SDS011;28237;47.954;21.730;2022-09-02T09:27:45;2.80;;;1.50;;
42282;SDS011;28237;47.954;21.730;2022-09-02T09:30:11;2.55;;;1.90;;
42282;SDS011;28237;47.954;21.730;2022-09-02T09:32:46;4.07;;;1.75;;
42282;SDS011;28237;47.954;21.730;2022-09-02T09:35:14;5.40;;;1.67;;
42282;SDS011;28237;47.954;21.730;2022-09-02T09:37:43;6.18;;;2.15;;
42282;SDS011;28237;47.954;21.730;2022-09-02T09:40:20;3.53;;;1.58;;
42282;SDS011;28237;47.954;21.730;2022-09-02T09:42:46;4.47;;;1.70;;
42282;SDS011;28237;47.954;21.730;2022-09-02T09:45:24;3.15;;;2.17;;
42282;SDS011;28237;47.954;21.730;2022-09-02T09:48:09;4.43;;;1.95;;
42282;SDS011;28237;47.954;21.730;2022-09-02T09:50:37;3.53;;;1.77;;
42282;SDS011;28237;47.954;21.730;2022-09-02T09:58:14;5.15;;;1.85;;
42282;SDS011;28237;47.954;21.730;2022-09-02T10:00:40;5.43;;;2.35;;
42282;SDS011;28237;47.954;21.730;2022-09-02T10:03:06;4.88;;;2.13;;
42282;SDS011;28237;47.954;21.730;2022-09-02T10:05:36;11.35;;;2.55;;
42282;SDS011;28237;47.954;21.730;2022-09-02T10:08:17;3.15;;;1.55;;
42282;SDS011;28237;47.954;21.730;2022-09-02T10:11:53;3.80;;;1.60;;
42282;SDS011;28237;47.954;21.730;2022-09-02T10:13:38;3.73;;;1.80;;
42282;SDS011;28237;47.954;21.730;2022-09-02T10:18:40;3.95;;;2.13;;
42282;SDS011;28237;47.954;21.730;2022-09-02T10:21:12;4.95;;;2.35;;
42282;SDS011;28237;47.954;21.730;2022-09-02T10:23:46;7.50;;;2.47;;
42282;SDS011;28237;47.954;21.730;2022-09-02T10:31:35;5.10;;;2.10;;
42282;SDS011;28237;47.954;21.730;2022-09-02T10:36:42;6.47;;;2.08;;
42282;SDS011;28237;47.954;21.730;2022-09-02T10:42:01;6.75;;;1.88;;
42282;SDS011;28237;47.954;21.730;2022-09-02T10:44:31;6.05;;;2.65;;
42282;SDS011;28237;47.954;21.730;2022-09-02T10:47:22;7.05;;;2.40;;
42282;SDS011;28237;47.954;21.730;2022-09-02T10:49:56;4.63;;;1.95;;
42282;SDS011;28237;47.954;21.730;2022-09-02T10:52:38;7.30;;;3.22;;
42282;SDS011;28237;47.954;21.730;2022-09-02T10:57:53;4.82;;;2.17;;
42282;SDS011;28237;47.954;21.730;2022-09-02T11:00:22;8.52;;;2.40;;
42282;SDS011;28237;47.954;21.730;2022-09-02T11:05:22;6.47;;;3.22;;
42282;SDS011;28237;47.954;21.730;2022-09-02T11:07:57;3.80;;;1.90;;
42282;SDS011;28237;47.954;21.730;2022-09-02T11:10:27;4.38;;;2.47;;
42282;SDS011;28237;47.954;21.730;2022-09-02T11:12:58;6.03;;;2.38;;
42282;SDS011;28237;47.954;21.730;2022-09-02T11:18:39;5.97;;;2.28;;
42282;SDS011;28237;47.954;21.730;2022-09-02T11:23:40;2.63;;;1.90;;
42282;SDS011;28237;47.954;21.730;2022-09-02T11:26:12;6.22;;;2.90;;
42282;SDS011;28237;47.954;21.730;2022-09-02T11:31:42;3.33;;;1.98;;
42282;SDS011;28237;47.954;21.730;2022-09-02T11:34:25;6.20;;;2.33;;
42282;SDS011;28237;47.954;21.730;2022-09-02T11:37:08;7.28;;;3.58;;
42282;SDS011;28237;47.954;21.730;2022-09-02T11:48:05;4.47;;;2.40;;
42282;SDS011;28237;47.954;21.730;2022-09-02T11:50:37;8.98;;;2.97;;
42282;SDS011;28237;47.954;21.730;2022-09-02T11:55:54;4.90;;;2.70;;
42282;SDS011;28237;47.954;21.730;2022-09-02T11:58:42;5.03;;;2.55;;
42282;SDS011;28237;47.954;21.730;2022-09-02T12:03:55;8.27;;;2.90;;
42282;SDS011;28237;47.954;21.730;2022-09-02T12:06:22;6.10;;;2.22;;
42282;SDS011;28237;47.954;21.730;2022-09-02T12:11:33;6.78;;;3.47;;
42282;SDS011;28237;47.954;21.730;2022-09-02T12:14:05;4.72;;;3.33;;
42282;SDS011;28237;47.954;21.730;2022-09-02T12:16:35;5.35;;;2.88;;
42282;SDS011;28237;47.954;21.730;2022-09-02T12:21:31;3.83;;;3.05;;
42282;SDS011;28237;47.954;21.730;2022-09-02T12:28:48;12.07;;;3.23;;
42282;SDS011;28237;47.954;21.730;2022-09-02T12:31:35;8.00;;;4.15;;
42282;SDS011;28237;47.954;21.730;2022-09-02T12:34:00;5.07;;;2.97;;
42282;SDS011;28237;47.954;21.730;2022-09-02T12:41:44;6.20;;;3.45;;
42282;SDS011;28237;47.954;21.730;2022-09-02T12:44:19;5.90;;;3.30;;
42282;SDS011;28237;47.954;21.730;2022-09-02T12:47:33;4.95;;;3.33;;
42282;SDS011;28237;47.954;21.730;2022-09-02T12:50:21;5.72;;;3.65;;
42282;SDS011;28237;47.954;21.730;2022-09-02T12:55:01;8.38;;;4.03;;
42282;SDS011;28237;47.954;21.730;2022-09-02T12:57:37;5.75;;;3.38;;
42282;SDS011;28237;47.954;21.730;2022-09-02T13:02:37;5.65;;;2.72;;
42282;SDS011;28237;47.954;21.730;2022-09-02T13:15:34;4.50;;;2.03;;
42282;SDS011;28237;47.954;21.730;2022-09-02T13:33:34;2.58;;;2.22;;
42282;SDS011;28237;47.954;21.730;2022-09-02T13:36:00;2.88;;;2.53;;
42282;SDS011;28237;47.954;21.730;2022-09-02T13:38:26;3.00;;;2.53;;
42282;SDS011;28237;47.954;21.730;2022-09-02T13:40:52;8.98;;;3.92;;
42282;SDS011;28237;47.954;21.730;2022-09-02T13:43:18;4.80;;;2.13;;
42282;SDS011;28237;47.954;21.730;2022-09-02T13:45:44;4.50;;;2.13;;
42282;SDS011;28237;47.954;21.730;2022-09-02T13:50:41;2.67;;;1.45;;
42282;SDS011;28237;47.954;21.730;2022-09-02T13:53:07;1.90;;;1.48;;
42282;SDS011;28237;47.954;21.730;2022-09-02T13:55:32;3.35;;;1.80;;
42282;SDS011;28237;47.954;21.730;2022-09-02T13:58:05;4.20;;;1.67;;
42282;SDS011;28237;47.954;21.730;2022-09-02T14:00:38;1.90;;;1.50;;
42282;SDS011;28237;47.954;21.730;2022-09-02T14:03:08;2.25;;;1.23;;
42282;SDS011;28237;47.954;21.730;2022-09-02T14:05:35;1.83;;;1.40;;
42282;SDS011;28237;47.954;21.730;2022-09-02T14:08:02;4.63;;;1.40;;
42282;SDS011;28237;47.954;21.730;2022-09-02T14:10:29;1.80;;;1.48;;
42282;SDS011;28237;47.954;21.730;2022-09-02T14:12:56;1.58;;;1.25;;
42282;SDS011;28237;47.954;21.730;2022-09-02T14:15:26;2.08;;;1.48;;
42282;SDS011;28237;47.954;21.730;2022-09-02T14:20:36;2.10;;;1.20;;
42282;SDS011;28237;47.954;21.730;2022-09-02T14:23:01;1.55;;;1.15;;
42282;SDS011;28237;47.954;21.730;2022-09-02T14:25:29;2.20;;;1.10;;
42282;SDS011;28237;47.954;21.730;2022-09-02T14:27:57;3.55;;;1.27;;
42282;SDS011;28237;47.954;21.730;2022-09-02T14:30:27;5.05;;;1.23;;
42282;SDS011;28237;47.954;21.730;2022-09-02T14:35:38;1.88;;;1.35;;
42282;SDS011;28237;47.954;21.730;2022-09-02T14:38:03;3.40;;;1.88;;
42282;SDS011;28237;47.954;21.730;2022-09-02T14:40:35;3.03;;;1.60;;
42282;SDS011;28237;47.954;21.730;2022-09-02T14:43:00;2.45;;;1.73;;
42282;SDS011;28237;47.954;21.730;2022-09-02T14:45:27;1.33;;;0.88;;
42282;SDS011;28237;47.954;21.730;2022-09-02T14:47:53;1.73;;;1.10;;
42282;SDS011;28237;47.954;21.730;2022-09-02T14:50:20;1.92;;;1.05;;
42282;SDS011;28237;47.954;21.730;2022-09-02T14:52:47;1.48;;;1.25;;
42282;SDS011;28237;47.954;21.730;2022-09-02T14:58:00;3.50;;;0.73;;
42282;SDS011;28237;47.954;21.730;2022-09-02T15:00:26;1.23;;;0.93;;
42282;SDS011;28237;47.954;21.730;2022-09-02T15:02:52;1.47;;;0.97;;
42282;SDS011;28237;47.954;21.730;2022-09-02T15:05:20;0.80;;;0.50;;
42282;SDS011;28237;47.954;21.730;2022-09-02T15:07:48;1.42;;;0.90;;
42282;SDS011;28237;47.954;21.730;2022-09-02T15:10:13;4.03;;;1.02;;
42282;SDS011;28237;47.954;21.730;2022-09-02T15:12:42;2.57;;;1.03;;
42282;SDS011;28237;47.954;21.730;2022-09-02T15:15:10;0.93;;;0.85;;
42282;SDS011;28237;47.954;21.730;2022-09-02T15:17:35;1.33;;;0.70;;
42282;SDS011;28237;47.954;21.730;2022-09-02T15:20:01;0.98;;;0.63;;
42282;SDS011;28237;47.954;21.730;2022-09-02T15:22:26;0.90;;;0.80;;
42282;SDS011;28237;47.954;21.730;2022-09-02T15:24:51;4.10;;;1.73;;
42282;SDS011;28237;47.954;21.730;2022-09-02T15:27:17;2.07;;;1.10;;
42282;SDS011;28237;47.954;21.730;2022-09-02T15:29:42;2.95;;;1.27;;
42282;SDS011;28237;47.954;21.730;2022-09-02T15:32:07;1.25;;;0.90;;
42282;SDS011;28237;47.954;21.730;2022-09-02T15:34:33;1.43;;;1.33;;
42282;SDS011;28237;47.954;21.730;2022-09-02T15:36:58;1.55;;;0.70;;
42282;SDS011;28237;47.954;21.730;2022-09-02T15:39:24;1.98;;;1.63;;
42282;SDS011;28237;47.954;21.730;2022-09-02T15:41:49;1.08;;;0.75;;
42282;SDS011;28237;47.954;21.730;2022-09-02T15:44:16;1.45;;;1.30;;
42282;SDS011;28237;47.954;21.730;2022-09-02T15:46:41;2.60;;;1.77;;
42282;SDS011;28237;47.954;21.730;2022-09-02T15:49:07;2.47;;;1.40;;
42282;SDS011;28237;47.954;21.730;2022-09-02T15:51:33;2.35;;;1.17;;
42282;SDS011;28237;47.954;21.730;2022-09-02T15:54:00;1.30;;;0.95;;
42282;SDS011;28237;47.954;21.730;2022-09-02T15:56:27;2.30;;;0.80;;
42282;SDS011;28237;47.954;21.730;2022-09-02T15:58:53;2.17;;;1.23;;
42282;SDS011;28237;47.954;21.730;2022-09-02T16:01:22;3.28;;;1.10;;
42282;SDS011;28237;47.954;21.730;2022-09-02T16:03:48;1.83;;;0.90;;
42282;SDS011;28237;47.954;21.730;2022-09-02T16:06:13;2.15;;;1.23;;
42282;SDS011;28237;47.954;21.730;2022-09-02T16:08:38;1.43;;;1.13;;
42282;SDS011;28237;47.954;21.730;2022-09-02T16:11:04;2.67;;;1.27;;
42282;SDS011;28237;47.954;21.730;2022-09-02T16:13:30;2.83;;;1.33;;
42282;SDS011;28237;47.954;21.730;2022-09-02T16:16:09;1.50;;;0.93;;
42282;SDS011;28237;47.954;21.730;2022-09-02T16:18:35;1.02;;;0.90;;
42282;SDS011;28237;47.954;21.730;2022-09-02T16:21:00;1.15;;;0.75;;
42282;SDS011;28237;47.954;21.730;2022-09-02T16:23:26;3.67;;;1.10;;
42282;SDS011;28237;47.954;21.730;2022-09-02T16:28:38;2.33;;;1.58;;
42282;SDS011;28237;47.954;21.730;2022-09-02T16:31:05;1.73;;;1.15;;
42282;SDS011;28237;47.954;21.730;2022-09-02T16:33:30;1.73;;;0.70;;
42282;SDS011;28237;47.954;21.730;2022-09-02T16:35:56;1.52;;;1.00;;